Silverpeak, Nevada
Current Conditions -  °F | °C
As of 1:56 PM on Thursday 27 Nov 2014 (Local Time) from KTPH Reporting Station
Clear Clear  
Wind Chill: 57°   Ceiling: Unl
Heat Index: 57°   Visibility: 10mi
Dew Point: 16°   Wind: 3mph
Humidity: 20%   Direction: 170°S
Pressure: 30.28"   Gusts: NA
Location:  37.75°N, 117.64°W
Report Text: KTPH 272156Z AUTO 17003KT 10SM CLR 14/M09 A3028 RMK AO2 SLP230 T01391089
Loading
Personal Weather Stations






























Interactive Weather Map New forecast layout! Learn more

10-Day Weather Forecast

Advertisements
Track Severe Weather on mobile